Time;durP1;ratioP1;P1;durP2;ratioP2;P2;SDS_P1;SDS_P2;PMS_P1;PMS_P2;Temp;Humidity;BMP_temperature;BMP_pressure;BME280_temperature;BME280_humidity;BME280_pressure;Samples;Min_cycle;Max_cycle;Signal;HPM_P1;HPM_P2
2022/04/09 00:00:26;;;;;;;2.75;1.88;;;;;;;;;;5036989;28;20294;-76
2022/04/09 00:02:52;;;;;;;2.88;1.88;;;;;;;;;;5036868;28;20025;-76
2022/04/09 00:05:17;;;;;;;5.15;1.83;;;;;;;;;;5037005;28;20437;-76
2022/04/09 00:07:43;;;;;;;1.55;1.38;;;;;;;;;;5038356;28;20030;-76
2022/04/09 00:10:10;;;;;;;2.55;1.60;;;;;;;;;;5038730;28;20021;-75
2022/04/09 00:12:37;;;;;;;3.30;1.63;;;;;;;;;;5038233;28;20033;-75
2022/04/09 00:15:04;;;;;;;5.30;1.65;;;;;;;;;;5038894;28;20363;-75
2022/04/09 00:17:35;;;;;;;4.72;1.95;;;;;;;;;;5038582;28;20029;-75
2022/04/09 00:20:01;;;;;;;4.78;2.33;;;;;;;;;;5039023;28;20063;-75
2022/04/09 00:22:26;;;;;;;4.13;2.58;;;;;;;;;;5038711;28;20036;-75
2022/04/09 00:24:52;;;;;;;4.10;2.22;;;;;;;;;;5039334;28;20406;-75
2022/04/09 00:27:17;;;;;;;4.53;2.40;;;;;;;;;;5041150;28;20033;-76
2022/04/09 00:29:42;;;;;;;4.22;1.85;;;;;;;;;;5044044;28;20277;-75
2022/04/09 00:32:07;;;;;;;6.17;2.40;;;;;;;;;;5045517;28;20030;-76
2022/04/09 00:34:33;;;;;;;4.75;2.38;;;;;;;;;;5045842;28;20317;-76
2022/04/09 00:36:58;;;;;;;2.43;1.83;;;;;;;;;;5043881;28;20029;-75
2022/04/09 00:39:24;;;;;;;2.95;1.90;;;;;;;;;;5045160;28;20265;-75
2022/04/09 00:41:50;;;;;;;5.45;2.33;;;;;;;;;;5045796;28;20121;-75
2022/04/09 00:44:17;;;;;;;2.95;1.90;;;;;;;;;;5045969;28;20022;-75
2022/04/09 00:46:43;;;;;;;2.47;1.98;;;;;;;;;;5044093;28;20034;-75
2022/04/09 00:49:09;;;;;;;3.35;1.65;;;;;;;;;;5043196;28;20075;-75
2022/04/09 00:51:39;;;;;;;2.00;1.60;;;;;;;;;;5044268;28;20033;-75
2022/04/09 00:54:05;;;;;;;3.03;1.90;;;;;;;;;;5044826;28;20025;-75
2022/04/09 00:56:32;;;;;;;3.35;1.95;;;;;;;;;;5043206;28;20033;-75
2022/04/09 00:59:01;;;;;;;4.05;2.03;;;;;;;;;;5043507;28;20036;-75
2022/04/09 01:01:28;;;;;;;4.43;1.85;;;;;;;;;;5045034;28;20029;-76
2022/04/09 01:03:55;;;;;;;2.90;1.80;;;;;;;;;;5044577;28;20025;-75
2022/04/09 01:06:21;;;;;;;5.65;2.25;;;;;;;;;;5044904;28;20028;-76
2022/04/09 01:08:47;;;;;;;2.70;2.13;;;;;;;;;;5046013;28;20528;-76
2022/04/09 01:11:15;;;;;;;4.75;1.90;;;;;;;;;;5043817;28;20029;-77
2022/04/09 01:13:41;;;;;;;3.20;2.03;;;;;;;;;;5043707;28;20063;-77
2022/04/09 01:16:07;;;;;;;3.33;2.17;;;;;;;;;;5044189;28;20122;-76
2022/04/09 01:18:33;;;;;;;8.90;2.22;;;;;;;;;;5043091;28;20030;-76
2022/04/09 01:21:02;;;;;;;3.42;2.13;;;;;;;;;;5044841;28;20071;-77
2022/04/09 01:23:28;;;;;;;4.07;2.20;;;;;;;;;;5044529;28;20541;-76
2022/04/09 01:25:56;;;;;;;5.70;2.38;;;;;;;;;;5044260;28;20025;-76
2022/04/09 01:28:21;;;;;;;3.42;2.15;;;;;;;;;;5044398;28;20021;-77
2022/04/09 01:30:47;;;;;;;4.13;2.45;;;;;;;;;;5045811;28;20094;-76
2022/04/09 01:33:17;;;;;;;3.55;2.38;;;;;;;;;;5046442;28;20079;-76
2022/04/09 01:35:43;;;;;;;4.78;2.67;;;;;;;;;;5046338;28;20031;-77
2022/04/09 01:38:08;;;;;;;4.78;2.40;;;;;;;;;;5046493;28;20033;-76
2022/04/09 01:40:33;;;;;;;6.72;2.40;;;;;;;;;;5046207;28;20053;-77
2022/04/09 01:42:58;;;;;;;3.35;2.30;;;;;;;;;;5045901;28;20108;-77
2022/04/09 01:45:24;;;;;;;4.82;2.55;;;;;;;;;;5045548;28;20028;-77
2022/04/09 01:47:49;;;;;;;4.82;2.25;;;;;;;;;;5010360;28;990530;-77
2022/04/09 01:50:14;;;;;;;5.97;2.33;;;;;;;;;;5046720;28;20040;-77
2022/04/09 01:52:40;;;;;;;2.92;2.28;;;;;;;;;;5046021;28;20061;-77
2022/04/09 01:55:06;;;;;;;4.47;2.60;;;;;;;;;;5044003;28;20442;-76
2022/04/09 01:57:32;;;;;;;8.48;2.55;;;;;;;;;;5044976;28;20034;-76
2022/04/09 01:59:57;;;;;;;3.75;2.22;;;;;;;;;;5044575;28;20021;-76
2022/04/09 02:02:23;;;;;;;3.92;2.15;;;;;;;;;;5044431;28;20083;-76
2022/04/09 02:04:48;;;;;;;2.67;2.17;;;;;;;;;;5044738;28;20040;-76
2022/04/09 02:07:14;;;;;;;4.30;2.20;;;;;;;;;;5043613;28;20025;-77
2022/04/09 02:09:39;;;;;;;3.88;2.55;;;;;;;;;;5044723;28;20022;-76
2022/04/09 02:12:06;;;;;;;3.78;2.45;;;;;;;;;;5044668;28;20026;-76
2022/04/09 02:14:31;;;;;;;4.10;2.50;;;;;;;;;;5039197;28;20025;-76
2022/04/09 02:16:56;;;;;;;4.03;2.72;;;;;;;;;;5039493;28;20563;-76
2022/04/09 02:19:21;;;;;;;4.37;2.47;;;;;;;;;;5039082;28;20443;-76
2022/04/09 02:21:47;;;;;;;4.18;2.60;;;;;;;;;;5039253;28;20273;-76
2022/04/09 02:24:12;;;;;;;3.95;2.25;;;;;;;;;;5040161;28;20075;-76
2022/04/09 02:26:37;;;;;;;4.30;2.70;;;;;;;;;;5039310;28;20402;-77
2022/04/09 02:29:02;;;;;;;4.53;2.72;;;;;;;;;;5039640;28;20381;-76
2022/04/09 02:31:28;;;;;;;4.85;2.58;;;;;;;;;;5039428;28;20036;-77
2022/04/09 02:33:54;;;;;;;5.25;2.53;;;;;;;;;;5040845;28;20028;-76
2022/04/09 02:36:19;;;;;;;4.30;2.47;;;;;;;;;;5039825;28;20056;-76
2022/04/09 02:38:44;;;;;;;5.53;2.42;;;;;;;;;;5040311;28;20483;-76
2022/04/09 02:41:10;;;;;;;3.47;2.72;;;;;;;;;;5041029;28;20075;-76
2022/04/09 02:43:36;;;;;;;4.63;2.90;;;;;;;;;;5039783;28;20018;-77
2022/04/09 02:46:02;;;;;;;6.00;2.90;;;;;;;;;;5038589;28;20078;-76
2022/04/09 02:48:27;;;;;;;5.05;3.20;;;;;;;;;;5038916;28;20061;-76
2022/04/09 02:50:52;;;;;;;5.05;2.90;;;;;;;;;;5039395;28;20029;-76
2022/04/09 02:53:18;;;;;;;4.47;2.83;;;;;;;;;;5040248;28;20032;-76
2022/04/09 02:55:43;;;;;;;6.47;3.03;;;;;;;;;;5040096;28;20030;-76
2022/04/09 02:58:08;;;;;;;5.47;2.73;;;;;;;;;;5040312;28;20029;-76
2022/04/09 03:00:33;;;;;;;5.68;3.10;;;;;;;;;;5041239;28;20797;-76
2022/04/09 03:02:59;;;;;;;4.43;2.90;;;;;;;;;;5040622;28;20120;-76
2022/04/09 03:05:24;;;;;;;4.78;3.08;;;;;;;;;;5040857;28;20032;-76
2022/04/09 03:07:50;;;;;;;5.35;3.20;;;;;;;;;;5041109;28;20025;-76
2022/04/09 03:10:15;;;;;;;4.05;3.15;;;;;;;;;;5039304;28;20493;-76
2022/04/09 03:12:44;;;;;;;4.57;3.20;;;;;;;;;;5039774;28;20029;-76
2022/04/09 03:15:10;;;;;;;5.28;3.13;;;;;;;;;;5039827;28;20076;-76
2022/04/09 03:17:36;;;;;;;5.47;3.38;;;;;;;;;;5040274;28;20033;-76
2022/04/09 03:20:02;;;;;;;4.70;3.15;;;;;;;;;;5038894;28;20060;-76
2022/04/09 03:22:28;;;;;;;5.00;3.28;;;;;;;;;;5040434;28;20025;-76
2022/04/09 03:25:02;;;;;;;5.18;3.20;;;;;;;;;;5039669;28;20028;-76
2022/04/09 03:27:28;;;;;;;6.70;3.78;;;;;;;;;;5041168;28;20021;-75
2022/04/09 03:29:53;;;;;;;5.75;3.47;;;;;;;;;;5039902;28;20043;-75
2022/04/09 03:32:20;;;;;;;7.35;3.53;;;;;;;;;;5040716;28;20030;-76
2022/04/09 03:34:45;;;;;;;9.48;3.85;;;;;;;;;;5039453;28;20120;-76
2022/04/09 03:37:11;;;;;;;3.67;2.67;;;;;;;;;;5042195;28;20032;-76
2022/04/09 03:39:37;;;;;;;5.18;3.40;;;;;;;;;;5043332;28;20044;-76
2022/04/09 03:42:03;;;;;;;7.05;3.83;;;;;;;;;;5042791;28;20048;-75
2022/04/09 03:44:29;;;;;;;5.80;3.55;;;;;;;;;;5042142;28;20079;-75
2022/04/09 03:47:01;;;;;;;5.70;3.90;;;;;;;;;;5042339;28;20026;-75
2022/04/09 03:49:29;;;;;;;6.50;3.10;;;;;;;;;;5043381;28;20045;-74
2022/04/09 03:51:54;;;;;;;7.18;3.83;;;;;;;;;;5043705;28;20060;-75
2022/04/09 03:54:19;;;;;;;6.50;3.78;;;;;;;;;;5043817;28;20029;-76
2022/04/09 03:56:45;;;;;;;7.55;3.92;;;;;;;;;;5044462;28;20041;-76
2022/04/09 03:59:10;;;;;;;5.82;3.83;;;;;;;;;;5043586;28;20025;-76
2022/04/09 04:01:36;;;;;;;6.68;3.90;;;;;;;;;;5044889;28;20029;-75
2022/04/09 04:04:01;;;;;;;5.50;3.60;;;;;;;;;;5046588;28;20033;-74
2022/04/09 04:06:27;;;;;;;8.80;4.43;;;;;;;;;;5046269;28;20021;-76
2022/04/09 04:08:52;;;;;;;7.15;4.15;;;;;;;;;;5045667;28;20029;-76
2022/04/09 04:11:18;;;;;;;7.43;4.32;;;;;;;;;;5038509;28;20029;-75
2022/04/09 04:13:43;;;;;;;6.63;4.35;;;;;;;;;;5038368;28;20075;-75
2022/04/09 04:16:09;;;;;;;8.40;4.10;;;;;;;;;;5037431;28;20112;-75
2022/04/09 04:18:35;;;;;;;6.70;4.15;;;;;;;;;;5038289;28;20030;-75
2022/04/09 04:21:00;;;;;;;9.25;3.92;;;;;;;;;;5039086;28;20029;-76
2022/04/09 04:23:25;;;;;;;6.25;4.03;;;;;;;;;;5037507;28;20360;-76
2022/04/09 04:25:50;;;;;;;6.25;3.95;;;;;;;;;;5038124;28;20021;-76
2022/04/09 04:28:16;;;;;;;7.38;4.03;;;;;;;;;;5038290;28;20053;-76
2022/04/09 04:30:41;;;;;;;5.60;3.53;;;;;;;;;;5036279;28;20117;-76
2022/04/09 04:33:06;;;;;;;5.20;3.60;;;;;;;;;;5038087;28;20029;-76
2022/04/09 04:35:31;;;;;;;10.57;4.20;;;;;;;;;;5037742;28;20391;-75
2022/04/09 04:37:57;;;;;;;8.38;4.35;;;;;;;;;;5037730;28;20029;-76
2022/04/09 04:40:22;;;;;;;6.90;3.90;;;;;;;;;;5037273;28;20083;-76
2022/04/09 04:42:49;;;;;;;9.20;3.55;;;;;;;;;;5037382;28;20037;-76
2022/04/09 04:45:15;;;;;;;7.15;3.28;;;;;;;;;;5037476;28;20100;-76
2022/04/09 04:47:47;;;;;;;6.13;3.20;;;;;;;;;;5036971;28;20065;-76
2022/04/09 04:50:14;;;;;;;4.95;2.67;;;;;;;;;;5036548;28;20489;-76
2022/04/09 04:52:40;;;;;;;5.38;3.22;;;;;;;;;;5036587;28;20021;-76
2022/04/09 04:55:07;;;;;;;7.50;3.28;;;;;;;;;;5038192;28;20501;-76
2022/04/09 04:57:58;;;;;;;8.77;3.35;;;;;;;;;;5038307;28;20120;-76
2022/04/09 05:00:25;;;;;;;9.13;2.80;;;;;;;;;;5036353;28;20038;-75
2022/04/09 05:02:51;;;;;;;6.45;3.03;;;;;;;;;;5037346;28;20067;-76
2022/04/09 05:05:17;;;;;;;3.90;2.35;;;;;;;;;;5037178;28;20037;-76
2022/04/09 05:07:44;;;;;;;6.22;2.88;;;;;;;;;;5037946;28;20108;-76
2022/04/09 05:10:15;;;;;;;8.50;2.97;;;;;;;;;;5037591;28;20025;-76
2022/04/09 05:12:41;;;;;;;6.25;2.95;;;;;;;;;;5037276;28;20037;-76
2022/04/09 05:15:08;;;;;;;5.57;2.92;;;;;;;;;;5040333;28;20021;-77
2022/04/09 05:17:33;;;;;;;8.95;2.97;;;;;;;;;;5041142;28;20033;-75
2022/04/09 05:19:59;;;;;;;6.43;3.00;;;;;;;;;;5041199;28;20121;-75
2022/04/09 05:22:28;;;;;;;7.07;2.75;;;;;;;;;;5040820;28;20029;-76
2022/04/09 05:24:54;;;;;;;6.60;2.88;;;;;;;;;;5040858;28;20025;-75
2022/04/09 05:27:20;;;;;;;7.10;3.05;;;;;;;;;;5040911;28;20025;-76
2022/04/09 05:29:45;;;;;;;8.23;2.80;;;;;;;;;;5040114;28;20040;-77
2022/04/09 05:32:10;;;;;;;5.47;2.65;;;;;;;;;;5040251;28;20483;-76
2022/04/09 05:34:36;;;;;;;7.13;2.78;;;;;;;;;;5039760;28;20414;-76
2022/04/09 05:37:01;;;;;;;10.10;2.63;;;;;;;;;;5039593;28;20470;-76
2022/04/09 05:39:26;;;;;;;6.97;2.47;;;;;;;;;;5039293;28;20052;-76
2022/04/09 05:41:52;;;;;;;4.95;2.63;;;;;;;;;;5038802;28;20021;-76
2022/04/09 05:44:17;;;;;;;6.05;2.53;;;;;;;;;;5040447;28;20486;-76
2022/04/09 05:46:42;;;;;;;6.13;2.13;;;;;;;;;;5040683;28;20375;-76
2022/04/09 05:49:07;;;;;;;4.88;1.88;;;;;;;;;;5040088;28;20383;-76
2022/04/09 05:51:33;;;;;;;9.00;2.58;;;;;;;;;;5041407;28;20047;-77
2022/04/09 05:53:59;;;;;;;13.68;2.25;;;;;;;;;;5041846;28;20056;-76
2022/04/09 05:56:25;;;;;;;8.00;2.45;;;;;;;;;;5041171;28;20032;-76
2022/04/09 05:58:50;;;;;;;4.10;1.95;;;;;;;;;;5041186;28;20029;-76
2022/04/09 06:01:15;;;;;;;4.40;1.92;;;;;;;;;;5040483;28;20030;-77
2022/04/09 06:03:41;;;;;;;5.45;2.00;;;;;;;;;;5041570;28;20044;-77
2022/04/09 06:06:06;;;;;;;6.90;2.08;;;;;;;;;;5040348;28;20044;-76
2022/04/09 06:08:32;;;;;;;4.10;1.88;;;;;;;;;;5039820;28;20041;-75
2022/04/09 06:10:58;;;;;;;3.53;1.60;;;;;;;;;;5040634;28;20375;-76
2022/04/09 06:13:23;;;;;;;5.30;2.10;;;;;;;;;;5040434;28;20025;-77
2022/04/09 06:15:48;;;;;;;7.37;2.13;;;;;;;;;;5040922;28;20483;-76
2022/04/09 06:18:14;;;;;;;5.28;2.05;;;;;;;;;;5038872;28;20259;-77
2022/04/09 06:20:40;;;;;;;6.75;1.70;;;;;;;;;;5039353;28;20032;-77
2022/04/09 06:23:06;;;;;;;1.95;1.40;;;;;;;;;;5040193;28;20108;-76
2022/04/09 06:25:31;;;;;;;9.27;2.10;;;;;;;;;;5038781;28;20049;-76
2022/04/09 06:27:57;;;;;;;5.32;1.83;;;;;;;;;;5041242;28;20032;-76
2022/04/09 06:30:22;;;;;;;5.22;1.88;;;;;;;;;;5040145;28;20029;-76
2022/04/09 06:32:48;;;;;;;3.85;1.60;;;;;;;;;;5039671;28;20025;-76
2022/04/09 06:35:13;;;;;;;6.10;1.63;;;;;;;;;;5039863;28;20029;-76
2022/04/09 06:37:38;;;;;;;7.40;1.67;;;;;;;;;;5038460;28;20028;-75
2022/04/09 06:40:09;;;;;;;3.60;1.50;;;;;;;;;;5039133;28;20178;-76
2022/04/09 06:42:35;;;;;;;4.30;1.60;;;;;;;;;;5038938;28;20024;-76
2022/04/09 06:45:01;;;;;;;4.82;1.73;;;;;;;;;;5038866;28;20025;-76
2022/04/09 06:47:26;;;;;;;7.55;1.75;;;;;;;;;;5038782;28;20035;-76
2022/04/09 06:49:52;;;;;;;3.13;1.30;;;;;;;;;;5038876;28;20041;-76
2022/04/09 06:52:17;;;;;;;7.32;1.35;;;;;;;;;;5038376;28;20471;-75
2022/04/09 06:54:42;;;;;;;6.37;1.60;;;;;;;;;;5039017;28;20030;-76
2022/04/09 06:57:08;;;;;;;6.47;1.50;;;;;;;;;;5038729;28;20270;-76
2022/04/09 06:59:33;;;;;;;4.63;1.48;;;;;;;;;;5037774;28;20021;-76
2022/04/09 07:01:58;;;;;;;4.68;1.55;;;;;;;;;;5038777;28;20025;-76
2022/04/09 07:04:23;;;;;;;6.30;1.63;;;;;;;;;;5039588;28;20124;-74
2022/04/09 07:06:49;;;;;;;3.97;1.20;;;;;;;;;;5038962;28;20032;-76
2022/04/09 07:09:14;;;;;;;3.97;1.30;;;;;;;;;;5039206;28;20360;-76
2022/04/09 07:11:39;;;;;;;2.08;1.15;;;;;;;;;;5039728;28;20036;-76
2022/04/09 07:14:04;;;;;;;3.42;1.50;;;;;;;;;;5038738;28;20113;-76
2022/04/09 07:16:30;;;;;;;6.68;1.65;;;;;;;;;;5038542;28;20038;-75
2022/04/09 07:18:56;;;;;;;4.35;1.60;;;;;;;;;;5037310;28;20025;-76
2022/04/09 07:21:21;;;;;;;3.00;1.20;;;;;;;;;;5038799;28;20029;-76
2022/04/09 07:23:46;;;;;;;3.75;1.45;;;;;;;;;;5039617;28;20013;-76
2022/04/09 07:26:11;;;;;;;2.15;1.23;;;;;;;;;;5039976;28;20025;-75
2022/04/09 07:28:37;;;;;;;7.78;1.65;;;;;;;;;;5039057;28;20052;-75
2022/04/09 07:31:02;;;;;;;5.45;1.75;;;;;;;;;;5039206;28;20030;-76
2022/04/09 07:33:28;;;;;;;3.53;2.20;;;;;;;;;;5040502;28;20024;-76
2022/04/09 07:35:53;;;;;;;4.53;2.15;;;;;;;;;;5039450;28;20029;-76
2022/04/09 07:38:19;;;;;;;4.55;1.73;;;;;;;;;;5038527;28;20021;-76
2022/04/09 07:40:44;;;;;;;3.92;1.58;;;;;;;;;;5037370;28;20475;-76
2022/04/09 07:43:09;;;;;;;3.42;1.92;;;;;;;;;;5039583;28;20021;-76
2022/04/09 07:45:35;;;;;;;4.53;2.38;;;;;;;;;;5038391;28;20026;-77
2022/04/09 07:48:00;;;;;;;8.02;3.55;;;;;;;;;;5038979;28;20048;-76
2022/04/09 07:50:27;;;;;;;6.35;4.32;;;;;;;;;;5039870;28;20074;-76
2022/04/09 07:52:53;;;;;;;9.13;4.15;;;;;;;;;;5038368;28;20021;-76
2022/04/09 07:55:18;;;;;;;7.40;3.80;;;;;;;;;;5039877;28;20469;-76
2022/04/09 07:57:47;;;;;;;9.65;4.80;;;;;;;;;;5039805;28;20057;-76
2022/04/09 08:00:14;;;;;;;5.47;4.07;;;;;;;;;;5039730;28;20022;-76
2022/04/09 08:02:39;;;;;;;8.48;4.53;;;;;;;;;;5039618;28;20459;-77
2022/04/09 08:05:05;;;;;;;8.55;4.80;;;;;;;;;;5037765;28;20074;-76
2022/04/09 08:07:30;;;;;;;7.05;4.30;;;;;;;;;;5037976;28;20394;-76
2022/04/09 08:09:55;;;;;;;9.27;4.95;;;;;;;;;;5038802;28;20112;-76
2022/04/09 08:12:21;;;;;;;8.65;5.07;;;;;;;;;;5039024;28;20112;-76
2022/04/09 08:14:46;;;;;;;3.83;3.33;;;;;;;;;;5038278;28;20025;-77
2022/04/09 08:17:12;;;;;;;6.85;3.45;;;;;;;;;;5037135;28;20033;-77
2022/04/09 08:19:37;;;;;;;4.90;2.80;;;;;;;;;;5038203;28;20399;-77
2022/04/09 08:22:04;;;;;;;7.80;4.88;;;;;;;;;;5037843;28;20424;-75
2022/04/09 08:24:30;;;;;;;8.45;4.15;;;;;;;;;;5037766;28;20147;-78
2022/04/09 08:26:55;;;;;;;7.70;4.55;;;;;;;;;;5038374;28;20132;-77
2022/04/09 08:29:20;;;;;;;9.75;4.65;;;;;;;;;;5037745;28;20025;-77
2022/04/09 08:31:47;;;;;;;8.80;4.63;;;;;;;;;;5037260;28;20024;-77
2022/04/09 08:34:14;;;;;;;6.25;3.97;;;;;;;;;;5039370;28;20108;-77
2022/04/09 08:36:39;;;;;;;7.43;4.72;;;;;;;;;;5038018;28;20025;-76
2022/04/09 08:39:04;;;;;;;5.35;3.65;;;;;;;;;;5037159;28;20071;-77
2022/04/09 08:41:30;;;;;;;8.80;4.85;;;;;;;;;;5036998;28;20083;-77
2022/04/09 08:43:56;;;;;;;6.78;4.25;;;;;;;;;;5036209;28;20017;-77
2022/04/09 08:46:25;;;;;;;6.70;3.70;;;;;;;;;;5036715;28;20025;-77
2022/04/09 08:48:50;;;;;;;9.20;4.82;;;;;;;;;;5037240;28;20406;-76
2022/04/09 08:51:16;;;;;;;11.63;4.97;;;;;;;;;;5039119;28;20025;-76
2022/04/09 08:53:43;;;;;;;9.93;4.68;;;;;;;;;;5040264;28;20026;-77
2022/04/09 08:56:10;;;;;;;11.85;5.03;;;;;;;;;;5040006;28;20108;-76
2022/04/09 08:58:36;;;;;;;10.07;5.35;;;;;;;;;;5039875;28;20470;-76
2022/04/09 09:01:01;;;;;;;6.33;3.87;;;;;;;;;;5040368;28;20026;-76
2022/04/09 09:03:26;;;;;;;7.93;3.75;;;;;;;;;;5040341;28;20258;-77
2022/04/09 09:05:54;;;;;;;7.72;3.30;;;;;;;;;;5040768;28;20026;-76
2022/04/09 09:08:41;;;;;;;6.50;3.08;;;;;;;;;;5040237;28;20025;-76
2022/04/09 09:11:06;;;;;;;5.72;3.20;;;;;;;;;;5040146;28;20025;-76
2022/04/09 09:13:48;;;;;;;6.45;2.53;;;;;;;;;;5038134;28;20544;-76
2022/04/09 09:16:22;;;;;;;6.03;3.17;;;;;;;;;;5040013;28;20032;-76
2022/04/09 09:18:51;;;;;;;6.45;2.30;;;;;;;;;;5040106;28;20073;-77
2022/04/09 09:21:18;;;;;;;4.35;1.90;;;;;;;;;;5039148;28;20037;-77
2022/04/09 09:23:43;;;;;;;6.32;2.13;;;;;;;;;;5038896;28;20022;-75
2022/04/09 09:26:08;;;;;;;5.30;1.60;;;;;;;;;;5038545;28;20112;-75
2022/04/09 09:28:34;;;;;;;3.97;1.67;;;;;;;;;;5040028;28;20075;-76
2022/04/09 09:31:00;;;;;;;6.07;1.67;;;;;;;;;;5039999;28;20251;-75
2022/04/09 09:33:27;;;;;;;2.83;1.23;;;;;;;;;;5039747;28;20036;-76
2022/04/09 09:35:59;;;;;;;2.92;1.25;;;;;;;;;;5039967;28;20075;-76
2022/04/09 09:38:28;;;;;;;3.92;1.38;;;;;;;;;;5040303;28;20022;-75
2022/04/09 09:40:55;;;;;;;4.25;1.50;;;;;;;;;;5039465;28;20395;-75
2022/04/09 09:43:22;;;;;;;4.35;1.33;;;;;;;;;;5039275;28;20021;-76
2022/04/09 09:45:50;;;;;;;5.30;1.60;;;;;;;;;;5039961;28;20494;-76
2022/04/09 09:48:26;;;;;;;3.53;1.25;;;;;;;;;;5038590;28;20498;-76
2022/04/09 09:50:53;;;;;;;4.07;1.50;;;;;;;;;;5039024;28;20032;-77
2022/04/09 09:53:27;;;;;;;3.47;1.33;;;;;;;;;;5039183;28;20049;-76
2022/04/09 09:55:53;;;;;;;;;;;;;;;;;;5038878;28;20053;-76
2022/04/09 09:58:21;;;;;;;2.77;1.40;;;;;;;;;;5038772;28;20290;-75
2022/04/09 10:00:47;;;;;;;3.35;1.65;;;;;;;;;;5039309;28;20262;-76
2022/04/09 10:03:13;;;;;;;3.72;1.70;;;;;;;;;;5038237;28;20029;-76
2022/04/09 10:05:39;;;;;;;4.00;1.45;;;;;;;;;;5037293;28;20049;-76
2022/04/09 10:08:05;;;;;;;2.58;1.50;;;;;;;;;;5038492;28;20025;-77
2022/04/09 10:10:34;;;;;;;3.85;1.50;;;;;;;;;;5038550;28;20037;-76
2022/04/09 10:13:02;;;;;;;1.83;1.27;;;;;;;;;;5037151;28;20022;-75
2022/04/09 10:15:28;;;;;;;3.50;1.33;;;;;;;;;;5038538;28;20479;-77
2022/04/09 10:17:56;;;;;;;3.00;1.20;;;;;;;;;;5040118;28;20040;-77
2022/04/09 10:20:27;;;;;;;1.73;1.10;;;;;;;;;;5039034;28;20032;-77
2022/04/09 10:22:57;;;;;;;1.50;1.00;;;;;;;;;;5038945;28;20048;-76
2022/04/09 10:25:25;;;;;;;1.98;1.13;;;;;;;;;;5038527;28;20026;-76
2022/04/09 10:27:53;;;;;;;2.65;1.00;;;;;;;;;;5037041;28;20060;-77
2022/04/09 10:30:20;;;;;;;2.60;1.00;;;;;;;;;;5037734;28;20475;-75
2022/04/09 10:32:48;;;;;;;4.22;1.20;;;;;;;;;;5037331;28;20028;-76
2022/04/09 10:35:25;;;;;;;3.15;1.23;;;;;;;;;;5041868;28;20429;-75
2022/04/09 10:40:35;;;;;;;2.35;1.35;;;;;;;;;;5039441;28;20429;-76
2022/04/09 10:43:01;;;;;;;1.58;0.90;;;;;;;;;;5038383;28;20081;-77
2022/04/09 10:45:30;;;;;;;2.10;1.40;;;;;;;;;;5038252;28;20079;-75
2022/04/09 10:48:11;;;;;;;1.70;1.10;;;;;;;;;;5038646;28;20060;-77
2022/04/09 10:50:57;;;;;;;2.22;1.17;;;;;;;;;;5039414;28;20477;-76
2022/04/09 10:53:24;;;;;;;2.63;1.50;;;;;;;;;;5038829;28;20022;-76
2022/04/09 10:56:20;;;;;;;3.80;1.67;;;;;;;;;;5039583;28;20017;-75
2022/04/09 10:58:59;;;;;;;2.38;1.50;;;;;;;;;;5038228;28;20047;-75
2022/04/09 11:01:43;;;;;;;1.58;1.08;;;;;;;;;;5038549;28;20609;-76
2022/04/09 11:04:27;;;;;;;2.90;1.52;;;;;;;;;;5038355;28;20478;-77
2022/04/09 11:07:12;;;;;;;3.35;1.33;;;;;;;;;;5038185;28;20021;-76
2022/04/09 11:09:58;;;;;;;2.35;1.00;;;;;;;;;;5038103;28;20029;-75
2022/04/09 11:12:41;;;;;;;1.20;0.70;;;;;;;;;;5038145;28;20032;-75
2022/04/09 11:15:12;;;;;;;0.88;0.63;;;;;;;;;;5039805;28;20061;-76
2022/04/09 11:17:47;;;;;;;0.90;0.65;;;;;;;;;;5038331;28;20067;-75
2022/04/09 11:20:23;;;;;;;2.03;0.90;;;;;;;;;;5038148;28;20028;-74
2022/04/09 11:22:54;;;;;;;1.60;0.88;;;;;;;;;;5038232;28;20474;-75
2022/04/09 11:25:28;;;;;;;3.15;1.10;;;;;;;;;;5038851;28;20055;-75
2022/04/09 11:28:10;;;;;;;3.15;1.00;;;;;;;;;;5038569;28;20048;-76
2022/04/09 11:30:36;;;;;;;2.58;1.30;;;;;;;;;;5037633;28;20112;-75
2022/04/09 11:33:01;;;;;;;2.40;1.17;;;;;;;;;;5037892;28;20120;-76
2022/04/09 11:35:33;;;;;;;1.35;1.05;;;;;;;;;;5037747;28;20021;-75
2022/04/09 11:37:58;;;;;;;1.83;1.13;;;;;;;;;;5035156;28;20036;-76
2022/04/09 11:40:23;;;;;;;2.13;1.30;;;;;;;;;;5036656;28;20037;-75
2022/04/09 11:42:53;;;;;;;2.72;1.33;;;;;;;;;;5037341;28;20057;-75
2022/04/09 11:45:27;;;;;;;1.35;1.08;;;;;;;;;;5037508;28;20392;-75
2022/04/09 11:47:54;;;;;;;3.45;1.15;;;;;;;;;;5037760;28;20033;-75
2022/04/09 11:50:20;;;;;;;1.63;1.25;;;;;;;;;;5037126;28;20427;-75
2022/04/09 11:52:46;;;;;;;1.95;1.38;;;;;;;;;;5036999;28;20025;-76
2022/04/09 11:55:14;;;;;;;1.42;1.00;;;;;;;;;;5036950;28;20071;-76
2022/04/09 11:57:47;;;;;;;2.40;1.35;;;;;;;;;;5037815;28;20029;-76
2022/04/09 12:00:13;;;;;;;1.95;1.30;;;;;;;;;;5035261;28;20026;-76
2022/04/09 12:02:39;;;;;;;2.88;1.10;;;;;;;;;;5038328;28;20022;-75
2022/04/09 12:05:08;;;;;;;2.42;1.20;;;;;;;;;;5037534;28;20086;-75
2022/04/09 12:07:42;;;;;;;1.73;1.20;;;;;;;;;;5037813;28;20093;-76
2022/04/09 12:10:09;;;;;;;;;;;;;;;;;;5038586;28;20061;-76
2022/04/09 12:12:41;;;;;;;1.15;1.00;;;;;;;;;;5037699;28;19913;-75
2022/04/09 12:15:06;;;;;;;1.80;0.95;;;;;;;;;;5038177;28;20029;-76
2022/04/09 12:17:33;;;;;;;1.10;1.00;;;;;;;;;;5038741;28;20033;-75
2022/04/09 12:19:59;;;;;;;3.20;1.27;;;;;;;;;;5036914;28;20049;-74
2022/04/09 12:22:24;;;;;;;1.33;1.00;;;;;;;;;;5035531;28;20021;-76
2022/04/09 12:24:55;;;;;;;2.83;1.25;;;;;;;;;;5039620;28;20029;-75
2022/04/09 12:27:44;;;;;;;2.78;1.30;;;;;;;;;;5041158;28;20033;-76
2022/04/09 12:30:10;;;;;;;1.50;1.10;;;;;;;;;;5041722;28;20018;-76
2022/04/09 12:32:36;;;;;;;1.70;1.10;;;;;;;;;;5043038;28;20120;-75
2022/04/09 12:35:06;;;;;;;2.08;1.02;;;;;;;;;;5044454;28;20107;-75
2022/04/09 12:37:49;;;;;;;1.45;1.20;;;;;;;;;;5042964;28;20022;-75
2022/04/09 12:40:23;;;;;;;2.35;1.10;;;;;;;;;;5042481;28;20433;-77
2022/04/09 12:42:49;;;;;;;1.38;0.70;;;;;;;;;;5043018;28;20044;-78
2022/04/09 12:45:20;;;;;;;0.80;0.50;;;;;;;;;;5043248;28;20029;-76
2022/04/09 12:47:53;;;;;;;1.85;0.63;;;;;;;;;;5042586;28;20051;-75
2022/04/09 12:50:21;;;;;;;1.55;0.70;;;;;;;;;;5042997;28;20025;-76
2022/04/09 12:52:47;;;;;;;2.03;0.50;;;;;;;;;;5040246;28;20061;-75
2022/04/09 12:55:16;;;;;;;1.35;0.70;;;;;;;;;;5040263;28;20497;-74
2022/04/09 12:57:42;;;;;;;0.70;0.50;;;;;;;;;;5041632;28;20044;-75
2022/04/09 13:00:09;;;;;;;0.52;0.50;;;;;;;;;;5041218;28;20482;-75
2022/04/09 13:02:36;;;;;;;1.98;1.02;;;;;;;;;;5040627;28;20021;-77
2022/04/09 13:05:04;;;;;;;0.70;0.65;;;;;;;;;;5040045;28;20053;-75
2022/04/09 13:07:29;;;;;;;0.90;0.60;;;;;;;;;;5039382;28;20025;-76
2022/04/09 13:09:54;;;;;;;1.15;0.73;;;;;;;;;;5040359;28;20093;-76
2022/04/09 13:12:20;;;;;;;1.92;0.70;;;;;;;;;;5039879;28;20026;-76
2022/04/09 13:14:45;;;;;;;1.10;0.82;;;;;;;;;;5041236;28;20017;-76
2022/04/09 13:17:10;;;;;;;1.20;0.90;;;;;;;;;;5040286;28;20064;-75
2022/04/09 13:19:35;;;;;;;2.22;0.80;;;;;;;;;;5040161;28;20736;-75
2022/04/09 13:22:01;;;;;;;1.55;0.88;;;;;;;;;;5039519;28;20048;-75
2022/04/09 13:24:26;;;;;;;2.85;1.20;;;;;;;;;;5040885;28;20021;-77
2022/04/09 13:26:52;;;;;;;1.65;1.10;;;;;;;;;;5041012;28;20104;-76
2022/04/09 13:29:17;;;;;;;1.65;0.90;;;;;;;;;;5042025;28;20032;-74
2022/04/09 13:31:42;;;;;;;1.60;0.80;;;;;;;;;;5040951;28;20025;-75
2022/04/09 13:34:11;;;;;;;1.73;0.95;;;;;;;;;;5040912;28;20053;-74
2022/04/09 13:36:37;;;;;;;1.70;0.82;;;;;;;;;;5040364;28;20475;-76
2022/04/09 13:39:02;;;;;;;2.33;1.20;;;;;;;;;;5040632;28;20033;-75
2022/04/09 13:41:28;;;;;;;1.85;1.08;;;;;;;;;;5040290;28;20032;-76
2022/04/09 13:43:54;;;;;;;2.13;0.80;;;;;;;;;;5041133;28;20486;-76
2022/04/09 13:46:26;;;;;;;3.75;1.23;;;;;;;;;;5041293;28;20509;-75
2022/04/09 13:48:51;;;;;;;3.42;1.10;;;;;;;;;;5040894;28;20032;-76
2022/04/09 13:51:17;;;;;;;3.47;1.00;;;;;;;;;;5041382;28;20025;-75
2022/04/09 13:53:42;;;;;;;1.60;0.85;;;;;;;;;;5041742;28;20056;-77
2022/04/09 13:56:08;;;;;;;1.25;0.80;;;;;;;;;;5040753;28;20057;-76
2022/04/09 13:58:33;;;;;;;1.58;1.00;;;;;;;;;;5040408;28;20454;-76
2022/04/09 14:00:58;;;;;;;2.28;0.90;;;;;;;;;;5039210;28;20076;-76
2022/04/09 14:03:24;;;;;;;1.77;0.90;;;;;;;;;;5040037;28;20017;-76
2022/04/09 14:05:49;;;;;;;3.65;1.08;;;;;;;;;;5039290;28;20033;-77
2022/04/09 14:08:15;;;;;;;2.70;0.98;;;;;;;;;;5040599;28;20033;-74
2022/04/09 14:10:41;;;;;;;1.27;0.90;;;;;;;;;;5040687;28;20048;-76
2022/04/09 14:13:07;;;;;;;2.60;1.00;;;;;;;;;;5042205;28;20029;-77
2022/04/09 14:15:32;;;;;;;1.83;1.00;;;;;;;;;;5044507;28;20035;-76
2022/04/09 14:17:57;;;;;;;3.28;1.08;;;;;;;;;;5042640;28;20026;-76
2022/04/09 14:20:22;;;;;;;2.53;1.20;;;;;;;;;;5045262;28;20021;-75
2022/04/09 14:22:48;;;;;;;4.55;1.20;;;;;;;;;;5045118;28;20025;-75
2022/04/09 14:25:13;;;;;;;1.77;0.87;;;;;;;;;;5043600;28;20041;-76
2022/04/09 14:27:38;;;;;;;4.15;1.30;;;;;;;;;;5043172;28;20271;-76
2022/04/09 14:30:04;;;;;;;2.30;1.08;;;;;;;;;;5042251;28;20102;-76
2022/04/09 14:32:30;;;;;;;2.30;1.33;;;;;;;;;;5040486;28;20030;-76
2022/04/09 14:34:55;;;;;;;1.98;1.00;;;;;;;;;;5040715;28;20033;-75
2022/04/09 14:37:20;;;;;;;1.50;0.68;;;;;;;;;;5041045;28;20036;-75
2022/04/09 14:39:45;;;;;;;1.17;0.77;;;;;;;;;;5038430;28;20030;-76
2022/04/09 14:42:11;;;;;;;1.73;0.90;;;;;;;;;;5039978;28;20103;-76
2022/04/09 14:44:37;;;;;;;3.20;1.00;;;;;;;;;;5040032;28;20037;-76